sensor_id;sensor_type;location;lat;lon;timestamp;temperature;humidity
32728;DHT22;55292;51.844;19.246;2022-08-26T00:03:37;17.00;99.90
32728;DHT22;55292;51.844;19.246;2022-08-26T00:08:40;16.70;99.90
32728;DHT22;55292;51.844;19.246;2022-08-26T00:13:48;16.30;99.90
32728;DHT22;55292;51.844;19.246;2022-08-26T00:18:51;16.00;99.90
32728;DHT22;55292;51.844;19.246;2022-08-26T00:23:54;15.80;99.90
32728;DHT22;55292;51.844;19.246;2022-08-26T00:28:57;15.70;99.90
32728;DHT22;55292;51.844;19.246;2022-08-26T00:33:59;15.60;99.90
32728;DHT22;55292;51.844;19.246;2022-08-26T00:39:03;15.60;99.90
32728;DHT22;55292;51.844;19.246;2022-08-26T00:44:09;15.70;99.90
32728;DHT22;55292;51.844;19.246;2022-08-26T00:49:21;15.60;99.90
32728;DHT22;55292;51.844;19.246;2022-08-26T00:54:26;15.40;99.90
32728;DHT22;55292;51.844;19.246;2022-08-26T00:59:33;15.20;99.90
32728;DHT22;55292;51.844;19.246;2022-08-26T01:04:37;15.10;99.90
32728;DHT22;55292;51.844;19.246;2022-08-26T01:09:40;15.10;99.90
32728;DHT22;55292;51.844;19.246;2022-08-26T01:14:44;15.00;99.90
32728;DHT22;55292;51.844;19.246;2022-08-26T01:20:00;14.90;99.90
32728;DHT22;55292;51.844;19.246;2022-08-26T01:25:05;14.90;99.90
32728;DHT22;55292;51.844;19.246;2022-08-26T01:30:08;14.90;99.90
32728;DHT22;55292;51.844;19.246;2022-08-26T01:35:12;14.80;99.90
32728;DHT22;55292;51.844;19.246;2022-08-26T01:40:26;14.80;99.90
32728;DHT22;55292;51.844;19.246;2022-08-26T01:45:35;14.60;99.90
32728;DHT22;55292;51.844;19.246;2022-08-26T01:50:39;14.60;99.90
32728;DHT22;55292;51.844;19.246;2022-08-26T01:55:48;14.50;99.90
32728;DHT22;55292;51.844;19.246;2022-08-26T02:00:51;14.50;99.90
32728;DHT22;55292;51.844;19.246;2022-08-26T02:05:58;14.60;99.90
32728;DHT22;55292;51.844;19.246;2022-08-26T02:11:01;14.50;99.90
32728;DHT22;55292;51.844;19.246;2022-08-26T02:16:05;14.60;99.90
32728;DHT22;55292;51.844;19.246;2022-08-26T02:21:10;14.50;99.90
32728;DHT22;55292;51.844;19.246;2022-08-26T02:26:14;14.40;99.90
32728;DHT22;55292;51.844;19.246;2022-08-26T02:31:20;14.40;99.90
32728;DHT22;55292;51.844;19.246;2022-08-26T02:36:25;14.30;99.90
32728;DHT22;55292;51.844;19.246;2022-08-26T02:41:30;15.60;99.90
32728;DHT22;55292;51.844;19.246;2022-08-26T02:46:34;14.30;99.90
32728;DHT22;55292;51.844;19.246;2022-08-26T02:51:38;14.40;99.90
32728;DHT22;55292;51.844;19.246;2022-08-26T02:56:41;14.40;99.90
32728;DHT22;55292;51.844;19.246;2022-08-26T03:01:44;14.30;99.90
32728;DHT22;55292;51.844;19.246;2022-08-26T03:06:50;14.10;99.90
32728;DHT22;55292;51.844;19.246;2022-08-26T03:11:54;14.10;99.90
32728;DHT22;55292;51.844;19.246;2022-08-26T03:16:56;14.10;99.90
32728;DHT22;55292;51.844;19.246;2022-08-26T03:21:59;14.10;99.90
32728;DHT22;55292;51.844;19.246;2022-08-26T03:27:03;14.00;99.90
32728;DHT22;55292;51.844;19.246;2022-08-26T03:32:09;14.00;99.90
32728;DHT22;55292;51.844;19.246;2022-08-26T03:37:11;14.10;99.90
32728;DHT22;55292;51.844;19.246;2022-08-26T03:42:14;14.20;99.90
32728;DHT22;55292;51.844;19.246;2022-08-26T03:47:17;14.10;99.90
32728;DHT22;55292;51.844;19.246;2022-08-26T03:52:20;14.00;99.90
32728;DHT22;55292;51.844;19.246;2022-08-26T03:57:22;14.10;99.90
32728;DHT22;55292;51.844;19.246;2022-08-26T04:02:25;14.30;99.90
32728;DHT22;55292;51.844;19.246;2022-08-26T04:07:28;14.30;99.90
32728;DHT22;55292;51.844;19.246;2022-08-26T04:12:34;14.50;99.90
32728;DHT22;55292;51.844;19.246;2022-08-26T04:17:37;14.90;99.90
32728;DHT22;55292;51.844;19.246;2022-08-26T04:22:40;15.20;99.90
32728;DHT22;55292;51.844;19.246;2022-08-26T04:27:43;15.70;99.90
32728;DHT22;55292;51.844;19.246;2022-08-26T04:32:49;16.10;99.90
32728;DHT22;55292;51.844;19.246;2022-08-26T04:37:52;16.50;99.90
32728;DHT22;55292;51.844;19.246;2022-08-26T04:42:55;17.10;99.90
32728;DHT22;55292;51.844;19.246;2022-08-26T04:47:59;18.10;99.90
32728;DHT22;55292;51.844;19.246;2022-08-26T04:53:01;18.50;99.90
32728;DHT22;55292;51.844;19.246;2022-08-26T04:58:06;19.00;99.90
32728;DHT22;55292;51.844;19.246;2022-08-26T05:03:12;19.60;99.90
32728;DHT22;55292;51.844;19.246;2022-08-26T05:08:17;20.00;99.90
32728;DHT22;55292;51.844;19.246;2022-08-26T05:13:21;20.60;99.90
32728;DHT22;55292;51.844;19.246;2022-08-26T05:18:24;21.30;99.90
32728;DHT22;55292;51.844;19.246;2022-08-26T05:23:33;21.80;99.90
32728;DHT22;55292;51.844;19.246;2022-08-26T05:28:36;22.10;99.90
32728;DHT22;55292;51.844;19.246;2022-08-26T05:33:41;22.20;99.90
32728;DHT22;55292;51.844;19.246;2022-08-26T05:38:45;22.40;99.90
32728;DHT22;55292;51.844;19.246;2022-08-26T05:43:48;22.20;99.90
32728;DHT22;55292;51.844;19.246;2022-08-26T05:48:51;21.50;99.90
32728;DHT22;55292;51.844;19.246;2022-08-26T05:53:55;21.40;99.90
32728;DHT22;55292;51.844;19.246;2022-08-26T05:58:59;21.50;99.90
32728;DHT22;55292;51.844;19.246;2022-08-26T06:04:05;21.60;99.90
32728;DHT22;55292;51.844;19.246;2022-08-26T06:09:09;21.90;99.90
32728;DHT22;55292;51.844;19.246;2022-08-26T06:14:12;22.10;99.90
32728;DHT22;55292;51.844;19.246;2022-08-26T06:19:15;22.40;99.90
32728;DHT22;55292;51.844;19.246;2022-08-26T06:24:18;22.70;99.90
32728;DHT22;55292;51.844;19.246;2022-08-26T06:29:39;23.10;99.90
32728;DHT22;55292;51.844;19.246;2022-08-26T06:34:43;23.30;99.90
32728;DHT22;55292;51.844;19.246;2022-08-26T06:39:45;23.50;99.90
32728;DHT22;55292;51.844;19.246;2022-08-26T06:44:52;23.70;99.90
32728;DHT22;55292;51.844;19.246;2022-08-26T06:49:55;23.90;99.90
32728;DHT22;55292;51.844;19.246;2022-08-26T06:54:57;24.10;99.90
32728;DHT22;55292;51.844;19.246;2022-08-26T07:00:00;24.20;99.90
32728;DHT22;55292;51.844;19.246;2022-08-26T07:05:04;24.40;99.90
32728;DHT22;55292;51.844;19.246;2022-08-26T07:10:09;24.50;99.90
32728;DHT22;55292;51.844;19.246;2022-08-26T07:15:11;24.50;99.90
32728;DHT22;55292;51.844;19.246;2022-08-26T07:20:16;24.80;99.90
32728;DHT22;55292;51.844;19.246;2022-08-26T07:25:20;25.00;99.90
32728;DHT22;55292;51.844;19.246;2022-08-26T07:30:23;25.20;99.90
32728;DHT22;55292;51.844;19.246;2022-08-26T07:35:26;25.30;99.90
32728;DHT22;55292;51.844;19.246;2022-08-26T07:40:29;25.30;99.90
32728;DHT22;55292;51.844;19.246;2022-08-26T07:45:32;25.40;99.90
32728;DHT22;55292;51.844;19.246;2022-08-26T07:50:36;25.80;99.90
32728;DHT22;55292;51.844;19.246;2022-08-26T07:55:51;26.10;99.90
32728;DHT22;55292;51.844;19.246;2022-08-26T08:00:54;26.30;99.90
32728;DHT22;55292;51.844;19.246;2022-08-26T08:05:57;26.20;99.90
32728;DHT22;55292;51.844;19.246;2022-08-26T08:11:00;26.20;99.90
32728;DHT22;55292;51.844;19.246;2022-08-26T08:16:04;26.60;99.90
32728;DHT22;55292;51.844;19.246;2022-08-26T08:21:07;26.70;99.90
32728;DHT22;55292;51.844;19.246;2022-08-26T08:26:25;26.90;99.90
32728;DHT22;55292;51.844;19.246;2022-08-26T08:31:30;27.00;99.90
32728;DHT22;55292;51.844;19.246;2022-08-26T08:36:54;27.20;98.50
32728;DHT22;55292;51.844;19.246;2022-08-26T08:47:32;27.30;95.90
32728;DHT22;55292;51.844;19.246;2022-08-26T08:52:38;27.70;95.10
32728;DHT22;55292;51.844;19.246;2022-08-26T08:58:08;27.60;96.40
32728;DHT22;55292;51.844;19.246;2022-08-26T09:03:28;27.90;94.40
32728;DHT22;55292;51.844;19.246;2022-08-26T09:08:33;28.10;94.00
32728;DHT22;55292;51.844;19.246;2022-08-26T09:13:39;28.30;93.80
32728;DHT22;55292;51.844;19.246;2022-08-26T09:24:21;28.60;93.10
32728;DHT22;55292;51.844;19.246;2022-08-26T09:29:35;28.40;90.40
32728;DHT22;55292;51.844;19.246;2022-08-26T09:34:58;28.40;90.30
32728;DHT22;55292;51.844;19.246;2022-08-26T09:40:33;28.40;92.30
32728;DHT22;55292;51.844;19.246;2022-08-26T09:45:40;28.50;90.30
32728;DHT22;55292;51.844;19.246;2022-08-26T09:51:02;28.50;89.30
32728;DHT22;55292;51.844;19.246;2022-08-26T09:56:13;28.40;85.90
32728;DHT22;55292;51.844;19.246;2022-08-26T10:06:25;28.50;84.70
32728;DHT22;55292;51.844;19.246;2022-08-26T10:11:43;28.50;87.40
32728;DHT22;55292;51.844;19.246;2022-08-26T10:17:08;28.30;86.60
32728;DHT22;55292;51.844;19.246;2022-08-26T10:22:36;28.30;84.80
32728;DHT22;55292;51.844;19.246;2022-08-26T10:33:11;28.90;80.80
32728;DHT22;55292;51.844;19.246;2022-08-26T10:38:21;29.30;78.70
32728;DHT22;55292;51.844;19.246;2022-08-26T10:43:54;28.80;84.90
32728;DHT22;55292;51.844;19.246;2022-08-26T10:48:58;28.60;81.20
32728;DHT22;55292;51.844;19.246;2022-08-26T10:54:27;28.70;81.60
32728;DHT22;55292;51.844;19.246;2022-08-26T11:04:52;28.60;79.40
32728;DHT22;55292;51.844;19.246;2022-08-26T11:09:57;29.00;78.80
32728;DHT22;55292;51.844;19.246;2022-08-26T11:15:04;29.40;78.30
32728;DHT22;55292;51.844;19.246;2022-08-26T11:20:08;29.50;78.90
32728;DHT22;55292;51.844;19.246;2022-08-26T11:25:17;29.30;80.00
32728;DHT22;55292;51.844;19.246;2022-08-26T11:40:38;29.20;78.30
32728;DHT22;55292;51.844;19.246;2022-08-26T11:45:47;28.90;77.30
32728;DHT22;55292;51.844;19.246;2022-08-26T11:51:00;29.00;78.20
32728;DHT22;55292;51.844;19.246;2022-08-26T11:56:22;29.10;75.20
32728;DHT22;55292;51.844;19.246;2022-08-26T12:01:33;28.90;77.30
32728;DHT22;55292;51.844;19.246;2022-08-26T12:06:46;29.40;74.40
32728;DHT22;55292;51.844;19.246;2022-08-26T12:11:50;29.50;78.00
32728;DHT22;55292;51.844;19.246;2022-08-26T12:17:12;29.50;72.20
32728;DHT22;55292;51.844;19.246;2022-08-26T12:22:23;29.50;78.20
32728;DHT22;55292;51.844;19.246;2022-08-26T12:27:29;29.40;76.70
32728;DHT22;55292;51.844;19.246;2022-08-26T12:32:33;29.50;73.90
32728;DHT22;55292;51.844;19.246;2022-08-26T12:37:40;29.50;74.20
32728;DHT22;55292;51.844;19.246;2022-08-26T12:42:45;29.70;71.40
32728;DHT22;55292;51.844;19.246;2022-08-26T12:47:54;29.70;72.40
32728;DHT22;55292;51.844;19.246;2022-08-26T13:03:41;29.80;71.50
32728;DHT22;55292;51.844;19.246;2022-08-26T13:14:09;29.70;68.80
32728;DHT22;55292;51.844;19.246;2022-08-26T13:19:15;29.70;68.70
32728;DHT22;55292;51.844;19.246;2022-08-26T13:24:37;29.40;69.00
32728;DHT22;55292;51.844;19.246;2022-08-26T13:29:41;29.00;71.20
32728;DHT22;55292;51.844;19.246;2022-08-26T13:34:46;28.50;73.60
32728;DHT22;55292;51.844;19.246;2022-08-26T13:39:53;28.90;70.70
32728;DHT22;55292;51.844;19.246;2022-08-26T13:44:58;28.60;71.70
32728;DHT22;55292;51.844;19.246;2022-08-26T13:50:01;28.90;74.20
32728;DHT22;55292;51.844;19.246;2022-08-26T13:55:04;29.00;74.10
32728;DHT22;55292;51.844;19.246;2022-08-26T14:00:08;28.40;72.10
32728;DHT22;55292;51.844;19.246;2022-08-26T14:05:13;28.70;73.00
32728;DHT22;55292;51.844;19.246;2022-08-26T14:10:16;29.10;72.50
32728;DHT22;55292;51.844;19.246;2022-08-26T14:15:19;29.20;71.60
32728;DHT22;55292;51.844;19.246;2022-08-26T14:20:25;29.20;71.80
32728;DHT22;55292;51.844;19.246;2022-08-26T14:25:29;28.90;74.70
32728;DHT22;55292;51.844;19.246;2022-08-26T14:30:32;28.90;71.20
32728;DHT22;55292;51.844;19.246;2022-08-26T14:35:35;29.00;71.60
32728;DHT22;55292;51.844;19.246;2022-08-26T14:40:37;28.90;71.60
32728;DHT22;55292;51.844;19.246;2022-08-26T14:45:43;28.90;73.70
32728;DHT22;55292;51.844;19.246;2022-08-26T14:50:46;28.70;75.60
32728;DHT22;55292;51.844;19.246;2022-08-26T14:55:49;28.60;76.10
32728;DHT22;55292;51.844;19.246;2022-08-26T15:00:51;28.70;74.10
32728;DHT22;55292;51.844;19.246;2022-08-26T15:05:55;28.70;73.00
32728;DHT22;55292;51.844;19.246;2022-08-26T15:10:57;28.60;74.60
32728;DHT22;55292;51.844;19.246;2022-08-26T15:16:01;28.50;73.30
32728;DHT22;55292;51.844;19.246;2022-08-26T15:21:07;28.50;75.50
32728;DHT22;55292;51.844;19.246;2022-08-26T15:26:14;28.20;78.90
32728;DHT22;55292;51.844;19.246;2022-08-26T15:31:18;28.20;79.00
32728;DHT22;55292;51.844;19.246;2022-08-26T15:36:21;27.80;79.50
32728;DHT22;55292;51.844;19.246;2022-08-26T15:41:24;27.90;79.90
32728;DHT22;55292;51.844;19.246;2022-08-26T15:46:27;28.10;81.30
32728;DHT22;55292;51.844;19.246;2022-08-26T15:51:35;28.10;79.70
32728;DHT22;55292;51.844;19.246;2022-08-26T15:56:47;28.20;78.10
32728;DHT22;55292;51.844;19.246;2022-08-26T16:01:53;28.10;78.60
32728;DHT22;55292;51.844;19.246;2022-08-26T16:06:58;28.00;78.00
32728;DHT22;55292;51.844;19.246;2022-08-26T16:12:01;27.90;80.30
32728;DHT22;55292;51.844;19.246;2022-08-26T16:17:06;27.80;80.50
32728;DHT22;55292;51.844;19.246;2022-08-26T16:22:08;27.60;81.80
32728;DHT22;55292;51.844;19.246;2022-08-26T16:27:11;27.40;82.10
32728;DHT22;55292;51.844;19.246;2022-08-26T16:32:14;27.20;83.80
32728;DHT22;55292;51.844;19.246;2022-08-26T16:37:19;27.10;83.20
32728;DHT22;55292;51.844;19.246;2022-08-26T16:42:22;27.00;85.30
32728;DHT22;55292;51.844;19.246;2022-08-26T16:47:27;26.60;85.80
32728;DHT22;55292;51.844;19.246;2022-08-26T16:52:30;26.40;87.60
32728;DHT22;55292;51.844;19.246;2022-08-26T16:57:38;26.30;88.10
32728;DHT22;55292;51.844;19.246;2022-08-26T17:02:41;26.10;88.70
32728;DHT22;55292;51.844;19.246;2022-08-26T17:07:44;25.60;90.00
32728;DHT22;55292;51.844;19.246;2022-08-26T17:12:47;25.60;90.00
32728;DHT22;55292;51.844;19.246;2022-08-26T17:17:51;25.40;90.70
32728;DHT22;55292;51.844;19.246;2022-08-26T17:22:55;25.10;90.80
32728;DHT22;55292;51.844;19.246;2022-08-26T17:27:58;24.80;91.10
32728;DHT22;55292;51.844;19.246;2022-08-26T17:33:01;24.50;91.50
32728;DHT22;55292;51.844;19.246;2022-08-26T17:38:12;24.30;91.80
32728;DHT22;55292;51.844;19.246;2022-08-26T17:43:15;24.00;93.40
32728;DHT22;55292;51.844;19.246;2022-08-26T17:48:18;23.00;95.00
32728;DHT22;55292;51.844;19.246;2022-08-26T17:53:21;22.40;96.00
32728;DHT22;55292;51.844;19.246;2022-08-26T17:58:24;21.90;96.80
32728;DHT22;55292;51.844;19.246;2022-08-26T18:03:26;21.60;97.30
32728;DHT22;55292;51.844;19.246;2022-08-26T18:08:29;21.40;97.60
32728;DHT22;55292;51.844;19.246;2022-08-26T18:13:32;21.30;98.10
32728;DHT22;55292;51.844;19.246;2022-08-26T18:18:35;21.00;99.00
32728;DHT22;55292;51.844;19.246;2022-08-26T18:23:38;20.90;99.60
32728;DHT22;55292;51.844;19.246;2022-08-26T18:28:40;20.70;99.90
32728;DHT22;55292;51.844;19.246;2022-08-26T18:33:43;20.50;99.90
32728;DHT22;55292;51.844;19.246;2022-08-26T18:38:47;20.20;99.90
32728;DHT22;55292;51.844;19.246;2022-08-26T18:43:53;20.10;99.90
32728;DHT22;55292;51.844;19.246;2022-08-26T18:48:56;20.40;99.90
32728;DHT22;55292;51.844;19.246;2022-08-26T18:54:01;20.50;99.90
32728;DHT22;55292;51.844;19.246;2022-08-26T18:59:06;20.40;99.90
32728;DHT22;55292;51.844;19.246;2022-08-26T19:04:10;20.40;99.90
32728;DHT22;55292;51.844;19.246;2022-08-26T19:09:17;20.30;99.90
32728;DHT22;55292;51.844;19.246;2022-08-26T19:14:22;20.10;99.90
32728;DHT22;55292;51.844;19.246;2022-08-26T19:19:24;19.90;99.90
32728;DHT22;55292;51.844;19.246;2022-08-26T19:24:27;20.40;99.90
32728;DHT22;55292;51.844;19.246;2022-08-26T19:29:33;20.60;99.90
32728;DHT22;55292;51.844;19.246;2022-08-26T19:34:35;20.40;99.90
32728;DHT22;55292;51.844;19.246;2022-08-26T19:39:38;20.20;99.90
32728;DHT22;55292;51.844;19.246;2022-08-26T19:44:41;20.30;99.90
32728;DHT22;55292;51.844;19.246;2022-08-26T19:50:08;19.70;99.90
32728;DHT22;55292;51.844;19.246;2022-08-26T19:55:14;19.70;99.90
32728;DHT22;55292;51.844;19.246;2022-08-26T20:00:21;20.10;99.90
32728;DHT22;55292;51.844;19.246;2022-08-26T20:05:25;20.00;99.90
32728;DHT22;55292;51.844;19.246;2022-08-26T20:10:28;20.00;99.90
32728;DHT22;55292;51.844;19.246;2022-08-26T20:15:31;20.00;99.90
32728;DHT22;55292;51.844;19.246;2022-08-26T20:20:34;20.00;99.90
32728;DHT22;55292;51.844;19.246;2022-08-26T20:25:55;20.10;99.90
32728;DHT22;55292;51.844;19.246;2022-08-26T20:30:59;20.00;99.90
32728;DHT22;55292;51.844;19.246;2022-08-26T20:36:02;19.90;99.90
32728;DHT22;55292;51.844;19.246;2022-08-26T20:41:08;20.00;99.90
32728;DHT22;55292;51.844;19.246;2022-08-26T20:46:13;19.90;99.90
32728;DHT22;55292;51.844;19.246;2022-08-26T20:51:22;19.90;99.90
32728;DHT22;55292;51.844;19.246;2022-08-26T20:56:24;19.80;99.90
32728;DHT22;55292;51.844;19.246;2022-08-26T21:01:30;19.70;99.90
32728;DHT22;55292;51.844;19.246;2022-08-26T21:06:36;19.60;99.90
32728;DHT22;55292;51.844;19.246;2022-08-26T21:11:40;19.60;99.90
32728;DHT22;55292;51.844;19.246;2022-08-26T21:16:43;19.40;99.90
32728;DHT22;55292;51.844;19.246;2022-08-26T21:21:47;19.30;99.90
32728;DHT22;55292;51.844;19.246;2022-08-26T21:26:49;19.10;99.90
32728;DHT22;55292;51.844;19.246;2022-08-26T21:31:52;19.30;99.90
32728;DHT22;55292;51.844;19.246;2022-08-26T21:36:55;19.30;99.90
32728;DHT22;55292;51.844;19.246;2022-08-26T21:41:59;19.40;99.90
32728;DHT22;55292;51.844;19.246;2022-08-26T21:47:02;19.30;99.90
32728;DHT22;55292;51.844;19.246;2022-08-26T21:52:06;19.10;99.90
32728;DHT22;55292;51.844;19.246;2022-08-26T21:57:08;19.10;99.90
32728;DHT22;55292;51.844;19.246;2022-08-26T22:02:11;19.30;99.90
32728;DHT22;55292;51.844;19.246;2022-08-26T22:07:16;19.30;99.90
32728;DHT22;55292;51.844;19.246;2022-08-26T22:12:19;19.40;99.90
32728;DHT22;55292;51.844;19.246;2022-08-26T22:17:22;19.40;99.90
32728;DHT22;55292;51.844;19.246;2022-08-26T22:22:25;19.30;99.90
32728;DHT22;55292;51.844;19.246;2022-08-26T22:27:27;19.30;99.90
32728;DHT22;55292;51.844;19.246;2022-08-26T22:32:30;19.20;99.90
32728;DHT22;55292;51.844;19.246;2022-08-26T22:37:33;19.10;99.90
32728;DHT22;55292;51.844;19.246;2022-08-26T22:42:36;18.80;99.90
32728;DHT22;55292;51.844;19.246;2022-08-26T22:47:39;18.70;99.90
32728;DHT22;55292;51.844;19.246;2022-08-26T22:52:41;18.60;99.90
32728;DHT22;55292;51.844;19.246;2022-08-26T22:57:44;18.70;99.90
32728;DHT22;55292;51.844;19.246;2022-08-26T23:02:47;18.70;99.90
32728;DHT22;55292;51.844;19.246;2022-08-26T23:07:49;18.60;99.90
32728;DHT22;55292;51.844;19.246;2022-08-26T23:12:52;18.30;99.90
32728;DHT22;55292;51.844;19.246;2022-08-26T23:17:55;18.00;99.90
32728;DHT22;55292;51.844;19.246;2022-08-26T23:23:00;17.70;99.90
32728;DHT22;55292;51.844;19.246;2022-08-26T23:28:03;17.50;99.90
32728;DHT22;55292;51.844;19.246;2022-08-26T23:33:05;17.50;99.90
32728;DHT22;55292;51.844;19.246;2022-08-26T23:38:08;17.80;99.90
32728;DHT22;55292;51.844;19.246;2022-08-26T23:43:15;17.90;99.90
32728;DHT22;55292;51.844;19.246;2022-08-26T23:48:17;18.70;99.90
32728;DHT22;55292;51.844;19.246;2022-08-26T23:53:21;17.90;99.90
32728;DHT22;55292;51.844;19.246;2022-08-26T23:58:24;17.90;99.90
